sensor_id;sensor_type;location;lat;lon;timestamp;P1;durP1;ratioP1;P2;durP2;ratioP2
7160;SDS011;3622;53.576;9.978;2022-07-18T00:01:33;5.20;;;4.33;;
7160;SDS011;3622;53.576;9.978;2022-07-18T00:04:00;4.53;;;4.10;;
7160;SDS011;3622;53.576;9.978;2022-07-18T00:06:26;5.10;;;4.70;;
7160;SDS011;3622;53.576;9.978;2022-07-18T00:08:52;6.57;;;5.10;;
7160;SDS011;3622;53.576;9.978;2022-07-18T00:11:18;5.67;;;4.60;;
7160;SDS011;3622;53.576;9.978;2022-07-18T00:13:44;6.13;;;4.77;;
7160;SDS011;3622;53.576;9.978;2022-07-18T00:16:10;4.73;;;4.33;;
7160;SDS011;3622;53.576;9.978;2022-07-18T00:18:36;4.43;;;4.13;;
7160;SDS011;3622;53.576;9.978;2022-07-18T00:21:02;5.17;;;4.20;;
7160;SDS011;3622;53.576;9.978;2022-07-18T00:23:28;4.77;;;4.43;;
7160;SDS011;3622;53.576;9.978;2022-07-18T00:25:54;5.33;;;4.83;;
7160;SDS011;3622;53.576;9.978;2022-07-18T00:28:20;5.07;;;4.57;;
7160;SDS011;3622;53.576;9.978;2022-07-18T00:30:46;5.43;;;4.80;;
7160;SDS011;3622;53.576;9.978;2022-07-18T00:33:12;4.67;;;4.27;;
7160;SDS011;3622;53.576;9.978;2022-07-18T00:35:38;4.83;;;4.27;;
7160;SDS011;3622;53.576;9.978;2022-07-18T00:38:04;4.73;;;4.33;;
7160;SDS011;3622;53.576;9.978;2022-07-18T00:40:30;5.80;;;5.30;;
7160;SDS011;3622;53.576;9.978;2022-07-18T00:42:57;13.13;;;7.07;;
7160;SDS011;3622;53.576;9.978;2022-07-18T00:45:23;10.80;;;8.00;;
7160;SDS011;3622;53.576;9.978;2022-07-18T00:47:49;19.97;;;12.67;;
7160;SDS011;3622;53.576;9.978;2022-07-18T00:50:18;13.10;;;8.70;;
7160;SDS011;3622;53.576;9.978;2022-07-18T00:52:45;7.33;;;6.00;;
7160;SDS011;3622;53.576;9.978;2022-07-18T00:55:11;9.53;;;5.37;;
7160;SDS011;3622;53.576;9.978;2022-07-18T00:57:37;6.67;;;5.00;;
7160;SDS011;3622;53.576;9.978;2022-07-18T01:00:05;8.50;;;6.47;;
7160;SDS011;3622;53.576;9.978;2022-07-18T01:02:50;9.87;;;6.67;;
7160;SDS011;3622;53.576;9.978;2022-07-18T01:05:16;11.30;;;5.27;;
7160;SDS011;3622;53.576;9.978;2022-07-18T01:07:42;10.03;;;6.53;;
7160;SDS011;3622;53.576;9.978;2022-07-18T01:10:08;13.20;;;6.93;;
7160;SDS011;3622;53.576;9.978;2022-07-18T01:12:34;8.30;;;7.07;;
7160;SDS011;3622;53.576;9.978;2022-07-18T01:15:00;11.30;;;8.63;;
7160;SDS011;3622;53.576;9.978;2022-07-18T01:17:26;13.80;;;9.17;;
7160;SDS011;3622;53.576;9.978;2022-07-18T01:19:52;12.17;;;8.03;;
7160;SDS011;3622;53.576;9.978;2022-07-18T01:22:19;9.50;;;6.43;;
7160;SDS011;3622;53.576;9.978;2022-07-18T01:24:45;10.53;;;8.17;;
7160;SDS011;3622;53.576;9.978;2022-07-18T01:27:15;17.33;;;11.00;;
7160;SDS011;3622;53.576;9.978;2022-07-18T01:29:42;9.70;;;7.27;;
7160;SDS011;3622;53.576;9.978;2022-07-18T01:32:08;11.63;;;7.33;;
7160;SDS011;3622;53.576;9.978;2022-07-18T01:34:35;8.87;;;6.20;;
7160;SDS011;3622;53.576;9.978;2022-07-18T01:37:01;9.27;;;6.87;;
7160;SDS011;3622;53.576;9.978;2022-07-18T01:39:27;7.80;;;6.10;;
7160;SDS011;3622;53.576;9.978;2022-07-18T01:42:00;8.53;;;7.30;;
7160;SDS011;3622;53.576;9.978;2022-07-18T01:44:27;9.83;;;7.00;;
7160;SDS011;3622;53.576;9.978;2022-07-18T01:46:53;10.33;;;7.23;;
7160;SDS011;3622;53.576;9.978;2022-07-18T01:49:19;7.77;;;5.47;;
7160;SDS011;3622;53.576;9.978;2022-07-18T01:51:49;5.90;;;5.40;;
7160;SDS011;3622;53.576;9.978;2022-07-18T01:54:18;6.10;;;4.90;;
7160;SDS011;3622;53.576;9.978;2022-07-18T01:56:44;5.87;;;4.70;;
7160;SDS011;3622;53.576;9.978;2022-07-18T01:59:10;5.73;;;4.93;;
7160;SDS011;3622;53.576;9.978;2022-07-18T02:01:36;6.37;;;5.77;;
7160;SDS011;3622;53.576;9.978;2022-07-18T02:04:02;8.07;;;5.93;;
7160;SDS011;3622;53.576;9.978;2022-07-18T02:06:28;6.30;;;4.97;;
7160;SDS011;3622;53.576;9.978;2022-07-18T02:08:54;6.40;;;5.70;;
7160;SDS011;3622;53.576;9.978;2022-07-18T02:11:20;5.80;;;5.30;;
7160;SDS011;3622;53.576;9.978;2022-07-18T02:13:46;7.10;;;5.37;;
7160;SDS011;3622;53.576;9.978;2022-07-18T02:16:12;8.10;;;4.87;;
7160;SDS011;3622;53.576;9.978;2022-07-18T02:18:39;7.70;;;5.60;;
7160;SDS011;3622;53.576;9.978;2022-07-18T02:21:05;5.60;;;5.10;;
7160;SDS011;3622;53.576;9.978;2022-07-18T02:23:32;5.60;;;5.07;;
7160;SDS011;3622;53.576;9.978;2022-07-18T02:25:58;5.43;;;4.93;;
7160;SDS011;3622;53.576;9.978;2022-07-18T02:28:25;7.53;;;5.30;;
7160;SDS011;3622;53.576;9.978;2022-07-18T02:30:52;7.77;;;5.80;;
7160;SDS011;3622;53.576;9.978;2022-07-18T02:33:18;11.03;;;7.37;;
7160;SDS011;3622;53.576;9.978;2022-07-18T02:35:44;8.60;;;6.00;;
7160;SDS011;3622;53.576;9.978;2022-07-18T02:38:10;14.30;;;9.83;;
7160;SDS011;3622;53.576;9.978;2022-07-18T02:40:36;19.17;;;8.83;;
7160;SDS011;3622;53.576;9.978;2022-07-18T02:43:02;9.43;;;8.10;;
7160;SDS011;3622;53.576;9.978;2022-07-18T02:45:28;9.27;;;6.47;;
7160;SDS011;3622;53.576;9.978;2022-07-18T02:47:54;7.50;;;6.70;;
7160;SDS011;3622;53.576;9.978;2022-07-18T02:50:21;13.30;;;8.47;;
7160;SDS011;3622;53.576;9.978;2022-07-18T02:52:47;7.13;;;5.97;;
7160;SDS011;3622;53.576;9.978;2022-07-18T02:55:13;10.40;;;8.50;;
7160;SDS011;3622;53.576;9.978;2022-07-18T02:57:40;7.57;;;6.77;;
7160;SDS011;3622;53.576;9.978;2022-07-18T03:00:08;7.67;;;6.50;;
7160;SDS011;3622;53.576;9.978;2022-07-18T03:02:34;7.93;;;6.93;;
7160;SDS011;3622;53.576;9.978;2022-07-18T03:05:00;6.20;;;5.30;;
7160;SDS011;3622;53.576;9.978;2022-07-18T03:07:27;5.53;;;4.13;;
7160;SDS011;3622;53.576;9.978;2022-07-18T03:09:53;7.07;;;6.13;;
7160;SDS011;3622;53.576;9.978;2022-07-18T03:12:19;7.53;;;5.53;;
7160;SDS011;3622;53.576;9.978;2022-07-18T03:14:45;5.40;;;4.90;;
7160;SDS011;3622;53.576;9.978;2022-07-18T03:17:11;20.83;;;13.50;;
7160;SDS011;3622;53.576;9.978;2022-07-18T03:19:37;9.30;;;8.10;;
7160;SDS011;3622;53.576;9.978;2022-07-18T03:22:03;31.20;;;23.30;;
7160;SDS011;3622;53.576;9.978;2022-07-18T03:24:29;21.97;;;12.83;;
7160;SDS011;3622;53.576;9.978;2022-07-18T03:26:55;56.87;;;39.03;;
7160;SDS011;3622;53.576;9.978;2022-07-18T03:29:21;49.90;;;34.27;;
7160;SDS011;3622;53.576;9.978;2022-07-18T03:31:47;33.30;;;22.77;;
7160;SDS011;3622;53.576;9.978;2022-07-18T03:34:13;16.07;;;12.83;;
7160;SDS011;3622;53.576;9.978;2022-07-18T03:36:40;14.73;;;10.97;;
7160;SDS011;3622;53.576;9.978;2022-07-18T03:39:07;6.53;;;5.57;;
7160;SDS011;3622;53.576;9.978;2022-07-18T03:41:33;6.03;;;4.40;;
7160;SDS011;3622;53.576;9.978;2022-07-18T03:43:59;7.13;;;6.43;;
7160;SDS011;3622;53.576;9.978;2022-07-18T03:46:25;4.77;;;4.30;;
7160;SDS011;3622;53.576;9.978;2022-07-18T03:48:51;4.47;;;4.10;;
7160;SDS011;3622;53.576;9.978;2022-07-18T03:51:17;4.83;;;4.40;;
7160;SDS011;3622;53.576;9.978;2022-07-18T03:53:43;8.43;;;7.10;;
7160;SDS011;3622;53.576;9.978;2022-07-18T03:56:09;8.33;;;5.87;;
7160;SDS011;3622;53.576;9.978;2022-07-18T03:58:35;8.93;;;5.90;;
7160;SDS011;3622;53.576;9.978;2022-07-18T04:01:02;8.37;;;7.03;;
7160;SDS011;3622;53.576;9.978;2022-07-18T04:03:28;8.57;;;7.40;;
7160;SDS011;3622;53.576;9.978;2022-07-18T04:05:54;6.47;;;5.80;;
7160;SDS011;3622;53.576;9.978;2022-07-18T04:08:20;6.50;;;5.70;;
7160;SDS011;3622;53.576;9.978;2022-07-18T04:10:46;6.77;;;5.87;;
7160;SDS011;3622;53.576;9.978;2022-07-18T04:13:12;6.37;;;5.77;;
7160;SDS011;3622;53.576;9.978;2022-07-18T04:15:38;7.20;;;5.03;;
7160;SDS011;3622;53.576;9.978;2022-07-18T04:18:05;9.07;;;5.63;;
7160;SDS011;3622;53.576;9.978;2022-07-18T04:20:31;5.03;;;4.53;;
7160;SDS011;3622;53.576;9.978;2022-07-18T04:22:58;8.93;;;6.40;;
7160;SDS011;3622;53.576;9.978;2022-07-18T04:25:26;6.83;;;5.43;;
7160;SDS011;3622;53.576;9.978;2022-07-18T04:27:53;5.30;;;4.80;;
7160;SDS011;3622;53.576;9.978;2022-07-18T04:30:20;6.90;;;5.20;;
7160;SDS011;3622;53.576;9.978;2022-07-18T04:32:46;4.90;;;4.40;;
7160;SDS011;3622;53.576;9.978;2022-07-18T04:35:12;5.57;;;4.87;;
7160;SDS011;3622;53.576;9.978;2022-07-18T04:37:39;7.53;;;5.10;;
7160;SDS011;3622;53.576;9.978;2022-07-18T04:40:05;7.00;;;5.00;;
7160;SDS011;3622;53.576;9.978;2022-07-18T04:42:32;7.27;;;4.70;;
7160;SDS011;3622;53.576;9.978;2022-07-18T04:44:58;8.07;;;4.80;;
7160;SDS011;3622;53.576;9.978;2022-07-18T04:47:27;5.13;;;4.60;;
7160;SDS011;3622;53.576;9.978;2022-07-18T04:49:54;8.17;;;4.53;;
7160;SDS011;3622;53.576;9.978;2022-07-18T04:52:20;5.27;;;4.77;;
7160;SDS011;3622;53.576;9.978;2022-07-18T04:54:46;5.60;;;5.07;;
7160;SDS011;3622;53.576;9.978;2022-07-18T04:57:12;5.03;;;4.40;;
7160;SDS011;3622;53.576;9.978;2022-07-18T04:59:43;4.60;;;4.10;;
7160;SDS011;3622;53.576;9.978;2022-07-18T05:02:09;8.87;;;5.50;;
7160;SDS011;3622;53.576;9.978;2022-07-18T05:04:36;4.40;;;4.00;;
7160;SDS011;3622;53.576;9.978;2022-07-18T05:07:03;4.50;;;4.20;;
7160;SDS011;3622;53.576;9.978;2022-07-18T05:09:29;7.07;;;5.77;;
7160;SDS011;3622;53.576;9.978;2022-07-18T05:11:55;6.23;;;5.63;;
7160;SDS011;3622;53.576;9.978;2022-07-18T05:14:21;7.83;;;6.17;;
7160;SDS011;3622;53.576;9.978;2022-07-18T05:16:47;13.10;;;9.30;;
7160;SDS011;3622;53.576;9.978;2022-07-18T05:19:13;5.53;;;5.00;;
7160;SDS011;3622;53.576;9.978;2022-07-18T05:21:41;9.10;;;8.17;;
7160;SDS011;3622;53.576;9.978;2022-07-18T05:24:06;16.50;;;9.43;;
7160;SDS011;3622;53.576;9.978;2022-07-18T05:26:33;10.60;;;8.20;;
7160;SDS011;3622;53.576;9.978;2022-07-18T05:28:59;9.67;;;7.37;;
7160;SDS011;3622;53.576;9.978;2022-07-18T05:31:25;11.70;;;6.23;;
7160;SDS011;3622;53.576;9.978;2022-07-18T05:33:51;7.70;;;6.13;;
7160;SDS011;3622;53.576;9.978;2022-07-18T05:36:17;5.40;;;4.90;;
7160;SDS011;3622;53.576;9.978;2022-07-18T05:38:43;17.57;;;10.53;;
7160;SDS011;3622;53.576;9.978;2022-07-18T05:41:09;17.00;;;10.50;;
7160;SDS011;3622;53.576;9.978;2022-07-18T05:43:35;10.20;;;8.10;;
7160;SDS011;3622;53.576;9.978;2022-07-18T05:46:01;15.63;;;9.50;;
7160;SDS011;3622;53.576;9.978;2022-07-18T05:48:27;9.40;;;6.87;;
7160;SDS011;3622;53.576;9.978;2022-07-18T05:50:53;8.23;;;6.80;;
7160;SDS011;3622;53.576;9.978;2022-07-18T05:53:19;7.50;;;6.70;;
7160;SDS011;3622;53.576;9.978;2022-07-18T05:55:45;11.60;;;7.57;;
7160;SDS011;3622;53.576;9.978;2022-07-18T05:58:11;6.70;;;5.70;;
7160;SDS011;3622;53.576;9.978;2022-07-18T06:00:37;18.90;;;7.83;;
7160;SDS011;3622;53.576;9.978;2022-07-18T06:03:03;11.93;;;6.17;;
7160;SDS011;3622;53.576;9.978;2022-07-18T06:05:29;6.87;;;5.13;;
7160;SDS011;3622;53.576;9.978;2022-07-18T06:07:55;11.03;;;4.87;;
7160;SDS011;3622;53.576;9.978;2022-07-18T06:10:22;11.40;;;7.97;;
7160;SDS011;3622;53.576;9.978;2022-07-18T06:12:48;20.47;;;12.67;;
7160;SDS011;3622;53.576;9.978;2022-07-18T06:15:15;12.20;;;9.23;;
7160;SDS011;3622;53.576;9.978;2022-07-18T06:17:41;10.40;;;8.00;;
7160;SDS011;3622;53.576;9.978;2022-07-18T06:20:07;11.10;;;6.37;;
7160;SDS011;3622;53.576;9.978;2022-07-18T06:22:34;10.17;;;5.50;;
7160;SDS011;3622;53.576;9.978;2022-07-18T06:25:00;7.83;;;5.57;;
7160;SDS011;3622;53.576;9.978;2022-07-18T06:27:27;11.53;;;6.33;;
7160;SDS011;3622;53.576;9.978;2022-07-18T06:29:53;9.13;;;6.13;;
7160;SDS011;3622;53.576;9.978;2022-07-18T06:32:19;24.23;;;17.43;;
7160;SDS011;3622;53.576;9.978;2022-07-18T06:34:45;7.57;;;5.97;;
7160;SDS011;3622;53.576;9.978;2022-07-18T06:37:11;7.43;;;5.73;;
7160;SDS011;3622;53.576;9.978;2022-07-18T06:39:37;9.97;;;5.37;;
7160;SDS011;3622;53.576;9.978;2022-07-18T06:42:03;7.53;;;5.60;;
7160;SDS011;3622;53.576;9.978;2022-07-18T06:44:29;13.87;;;8.60;;
7160;SDS011;3622;53.576;9.978;2022-07-18T06:46:55;9.17;;;5.63;;
7160;SDS011;3622;53.576;9.978;2022-07-18T06:49:24;9.60;;;6.60;;
7160;SDS011;3622;53.576;9.978;2022-07-18T06:51:51;8.67;;;5.63;;
7160;SDS011;3622;53.576;9.978;2022-07-18T06:54:17;17.10;;;6.00;;
7160;SDS011;3622;53.576;9.978;2022-07-18T06:56:45;5.93;;;5.40;;
7160;SDS011;3622;53.576;9.978;2022-07-18T06:59:11;12.30;;;6.40;;
7160;SDS011;3622;53.576;9.978;2022-07-18T07:01:37;16.47;;;6.63;;
7160;SDS011;3622;53.576;9.978;2022-07-18T07:04:03;11.73;;;6.10;;
7160;SDS011;3622;53.576;9.978;2022-07-18T07:06:29;18.77;;;7.33;;
7160;SDS011;3622;53.576;9.978;2022-07-18T07:08:54;13.80;;;5.87;;
7160;SDS011;3622;53.576;9.978;2022-07-18T07:11:20;13.00;;;7.20;;
7160;SDS011;3622;53.576;9.978;2022-07-18T07:13:47;10.27;;;6.30;;
7160;SDS011;3622;53.576;9.978;2022-07-18T07:16:13;10.50;;;5.40;;
7160;SDS011;3622;53.576;9.978;2022-07-18T07:18:39;17.47;;;6.63;;
7160;SDS011;3622;53.576;9.978;2022-07-18T07:21:05;15.40;;;9.30;;
7160;SDS011;3622;53.576;9.978;2022-07-18T07:23:33;14.87;;;6.63;;
7160;SDS011;3622;53.576;9.978;2022-07-18T07:25:59;9.00;;;6.10;;
7160;SDS011;3622;53.576;9.978;2022-07-18T07:28:25;9.60;;;6.80;;
7160;SDS011;3622;53.576;9.978;2022-07-18T07:30:51;8.97;;;6.70;;
7160;SDS011;3622;53.576;9.978;2022-07-18T07:33:17;11.27;;;7.80;;
7160;SDS011;3622;53.576;9.978;2022-07-18T07:35:43;10.27;;;7.60;;
7160;SDS011;3622;53.576;9.978;2022-07-18T07:38:09;16.30;;;8.67;;
7160;SDS011;3622;53.576;9.978;2022-07-18T07:40:42;8.93;;;7.97;;
7160;SDS011;3622;53.576;9.978;2022-07-18T07:43:09;31.53;;;20.13;;
7160;SDS011;3622;53.576;9.978;2022-07-18T07:45:36;14.27;;;7.27;;
7160;SDS011;3622;53.576;9.978;2022-07-18T07:48:02;12.73;;;10.80;;
7160;SDS011;3622;53.576;9.978;2022-07-18T07:50:28;8.67;;;6.70;;
7160;SDS011;3622;53.576;9.978;2022-07-18T07:52:54;13.40;;;6.80;;
7160;SDS011;3622;53.576;9.978;2022-07-18T07:55:20;12.97;;;7.07;;
7160;SDS011;3622;53.576;9.978;2022-07-18T07:57:47;12.93;;;7.83;;
7160;SDS011;3622;53.576;9.978;2022-07-18T08:00:13;10.27;;;7.30;;
7160;SDS011;3622;53.576;9.978;2022-07-18T08:02:52;13.17;;;9.70;;
7160;SDS011;3622;53.576;9.978;2022-07-18T08:05:18;14.10;;;8.57;;
7160;SDS011;3622;53.576;9.978;2022-07-18T08:07:44;11.40;;;7.03;;
7160;SDS011;3622;53.576;9.978;2022-07-18T08:10:10;9.97;;;6.80;;
7160;SDS011;3622;53.576;9.978;2022-07-18T08:12:36;17.53;;;7.27;;
7160;SDS011;3622;53.576;9.978;2022-07-18T08:15:02;9.47;;;6.30;;
7160;SDS011;3622;53.576;9.978;2022-07-18T08:17:28;11.33;;;6.90;;
7160;SDS011;3622;53.576;9.978;2022-07-18T08:19:54;10.50;;;8.40;;
7160;SDS011;3622;53.576;9.978;2022-07-18T08:22:20;12.37;;;7.60;;
7160;SDS011;3622;53.576;9.978;2022-07-18T08:24:46;16.90;;;8.80;;
7160;SDS011;3622;53.576;9.978;2022-07-18T08:27:12;10.67;;;8.10;;
7160;SDS011;3622;53.576;9.978;2022-07-18T08:29:39;11.50;;;7.80;;
7160;SDS011;3622;53.576;9.978;2022-07-18T08:32:05;22.27;;;9.67;;
7160;SDS011;3622;53.576;9.978;2022-07-18T08:34:31;10.27;;;6.47;;
7160;SDS011;3622;53.576;9.978;2022-07-18T08:36:57;6.90;;;5.37;;
7160;SDS011;3622;53.576;9.978;2022-07-18T08:39:23;6.03;;;5.53;;
7160;SDS011;3622;53.576;9.978;2022-07-18T08:41:50;11.33;;;7.70;;
7160;SDS011;3622;53.576;9.978;2022-07-18T08:44:16;8.67;;;6.30;;
7160;SDS011;3622;53.576;9.978;2022-07-18T08:46:43;7.47;;;6.00;;
7160;SDS011;3622;53.576;9.978;2022-07-18T08:49:11;7.37;;;6.17;;
7160;SDS011;3622;53.576;9.978;2022-07-18T08:51:38;11.87;;;7.37;;
7160;SDS011;3622;53.576;9.978;2022-07-18T08:54:04;13.47;;;6.07;;
7160;SDS011;3622;53.576;9.978;2022-07-18T08:56:30;7.97;;;5.87;;
7160;SDS011;3622;53.576;9.978;2022-07-18T08:58:56;8.37;;;5.80;;
7160;SDS011;3622;53.576;9.978;2022-07-18T09:01:22;13.53;;;6.47;;
7160;SDS011;3622;53.576;9.978;2022-07-18T09:03:48;11.10;;;5.87;;
7160;SDS011;3622;53.576;9.978;2022-07-18T09:06:41;12.60;;;5.10;;
7160;SDS011;3622;53.576;9.978;2022-07-18T09:09:07;6.37;;;5.43;;
7160;SDS011;3622;53.576;9.978;2022-07-18T09:11:36;17.80;;;10.00;;
7160;SDS011;3622;53.576;9.978;2022-07-18T09:14:02;20.07;;;8.97;;
7160;SDS011;3622;53.576;9.978;2022-07-18T09:16:28;28.00;;;13.67;;
7160;SDS011;3622;53.576;9.978;2022-07-18T09:18:54;8.00;;;5.50;;
7160;SDS011;3622;53.576;9.978;2022-07-18T09:21:21;10.87;;;6.57;;
7160;SDS011;3622;53.576;9.978;2022-07-18T09:23:48;10.87;;;5.50;;
7160;SDS011;3622;53.576;9.978;2022-07-18T09:26:33;9.40;;;5.70;;
7160;SDS011;3622;53.576;9.978;2022-07-18T09:29:00;8.50;;;5.53;;
7160;SDS011;3622;53.576;9.978;2022-07-18T09:31:26;12.07;;;5.90;;
7160;SDS011;3622;53.576;9.978;2022-07-18T09:33:53;9.60;;;6.20;;
7160;SDS011;3622;53.576;9.978;2022-07-18T09:36:19;7.90;;;5.80;;
7160;SDS011;3622;53.576;9.978;2022-07-18T09:38:45;7.43;;;6.03;;
7160;SDS011;3622;53.576;9.978;2022-07-18T09:41:11;10.70;;;5.37;;
7160;SDS011;3622;53.576;9.978;2022-07-18T09:43:38;6.00;;;5.10;;
7160;SDS011;3622;53.576;9.978;2022-07-18T09:46:04;8.53;;;5.70;;
7160;SDS011;3622;53.576;9.978;2022-07-18T09:48:31;9.57;;;5.57;;
7160;SDS011;3622;53.576;9.978;2022-07-18T09:51:01;6.80;;;4.90;;
7160;SDS011;3622;53.576;9.978;2022-07-18T09:53:32;7.35;;;5.18;;
7160;SDS011;3622;53.576;9.978;2022-07-18T09:56:05;6.90;;;3.93;;
7160;SDS011;3622;53.576;9.978;2022-07-18T09:58:32;5.90;;;4.63;;
7160;SDS011;3622;53.576;9.978;2022-07-18T10:00:59;6.03;;;4.47;;
7160;SDS011;3622;53.576;9.978;2022-07-18T10:03:25;10.90;;;4.67;;
7160;SDS011;3622;53.576;9.978;2022-07-18T10:05:52;8.87;;;5.17;;
7160;SDS011;3622;53.576;9.978;2022-07-18T10:08:20;7.43;;;5.00;;
7160;SDS011;3622;53.576;9.978;2022-07-18T10:10:48;5.20;;;3.87;;
7160;SDS011;3622;53.576;9.978;2022-07-18T10:13:14;4.57;;;4.23;;
7160;SDS011;3622;53.576;9.978;2022-07-18T10:15:41;6.13;;;4.17;;
7160;SDS011;3622;53.576;9.978;2022-07-18T10:18:15;11.27;;;5.27;;
7160;SDS011;3622;53.576;9.978;2022-07-18T10:23:16;9.40;;;4.93;;
7160;SDS011;3622;53.576;9.978;2022-07-18T10:25:43;10.67;;;6.33;;
7160;SDS011;3622;53.576;9.978;2022-07-18T10:28:10;8.70;;;6.00;;
7160;SDS011;3622;53.576;9.978;2022-07-18T10:30:37;5.43;;;4.93;;
7160;SDS011;3622;53.576;9.978;2022-07-18T10:33:03;5.70;;;5.30;;
7160;SDS011;3622;53.576;9.978;2022-07-18T10:38:21;5.63;;;5.07;;
7160;SDS011;3622;53.576;9.978;2022-07-18T10:41:07;4.37;;;4.00;;
7160;SDS011;3622;53.576;9.978;2022-07-18T10:43:34;6.47;;;5.50;;
7160;SDS011;3622;53.576;9.978;2022-07-18T10:46:00;6.77;;;5.03;;
7160;SDS011;3622;53.576;9.978;2022-07-18T10:51:04;5.07;;;4.60;;
7160;SDS011;3622;53.576;9.978;2022-07-18T10:56:16;4.70;;;4.30;;
7160;SDS011;3622;53.576;9.978;2022-07-18T10:58:42;4.97;;;4.47;;
7160;SDS011;3622;53.576;9.978;2022-07-18T11:01:10;5.50;;;4.33;;
7160;SDS011;3622;53.576;9.978;2022-07-18T11:03:39;6.13;;;4.53;;
7160;SDS011;3622;53.576;9.978;2022-07-18T11:06:05;5.70;;;5.17;;
7160;SDS011;3622;53.576;9.978;2022-07-18T11:08:31;7.87;;;4.87;;
7160;SDS011;3622;53.576;9.978;2022-07-18T11:18:32;8.90;;;7.87;;
7160;SDS011;3622;53.576;9.978;2022-07-18T11:20:58;8.40;;;6.77;;
7160;SDS011;3622;53.576;9.978;2022-07-18T11:23:25;23.97;;;6.00;;
7160;SDS011;3622;53.576;9.978;2022-07-18T11:25:52;8.00;;;6.33;;
7160;SDS011;3622;53.576;9.978;2022-07-18T11:28:22;12.70;;;7.63;;
7160;SDS011;3622;53.576;9.978;2022-07-18T11:30:58;8.67;;;6.63;;
7160;SDS011;3622;53.576;9.978;2022-07-18T11:33:25;8.43;;;7.13;;
7160;SDS011;3622;53.576;9.978;2022-07-18T11:35:52;8.40;;;6.10;;
7160;SDS011;3622;53.576;9.978;2022-07-18T11:38:18;7.03;;;6.17;;
7160;SDS011;3622;53.576;9.978;2022-07-18T11:40:50;6.80;;;6.03;;
7160;SDS011;3622;53.576;9.978;2022-07-18T11:43:20;6.57;;;5.97;;
7160;SDS011;3622;53.576;9.978;2022-07-18T11:45:46;5.80;;;5.30;;
7160;SDS011;3622;53.576;9.978;2022-07-18T11:48:19;5.67;;;5.23;;
7160;SDS011;3622;53.576;9.978;2022-07-18T11:50:46;5.80;;;5.30;;
7160;SDS011;3622;53.576;9.978;2022-07-18T11:53:13;5.30;;;4.83;;
7160;SDS011;3622;53.576;9.978;2022-07-18T11:55:40;5.40;;;4.90;;
7160;SDS011;3622;53.576;9.978;2022-07-18T11:58:15;5.73;;;4.97;;
7160;SDS011;3622;53.576;9.978;2022-07-18T12:00:43;6.87;;;5.57;;
7160;SDS011;3622;53.576;9.978;2022-07-18T12:05:36;7.17;;;6.27;;
7160;SDS011;3622;53.576;9.978;2022-07-18T12:11:05;6.43;;;5.07;;
7160;SDS011;3622;53.576;9.978;2022-07-18T12:18:51;5.30;;;4.90;;
7160;SDS011;3622;53.576;9.978;2022-07-18T12:21:17;6.10;;;4.90;;
7160;SDS011;3622;53.576;9.978;2022-07-18T12:23:43;6.40;;;4.40;;
7160;SDS011;3622;53.576;9.978;2022-07-18T12:26:09;5.83;;;4.93;;
7160;SDS011;3622;53.576;9.978;2022-07-18T12:28:35;9.13;;;5.07;;
7160;SDS011;3622;53.576;9.978;2022-07-18T12:31:01;7.10;;;4.60;;
7160;SDS011;3622;53.576;9.978;2022-07-18T12:33:27;5.20;;;4.80;;
7160;SDS011;3622;53.576;9.978;2022-07-18T12:35:57;5.10;;;4.70;;
7160;SDS011;3622;53.576;9.978;2022-07-18T12:38:23;5.07;;;4.63;;
7160;SDS011;3622;53.576;9.978;2022-07-18T12:40:59;6.87;;;6.10;;
7160;SDS011;3622;53.576;9.978;2022-07-18T12:45:56;11.70;;;4.93;;
7160;SDS011;3622;53.576;9.978;2022-07-18T12:48:23;5.53;;;4.57;;
7160;SDS011;3622;53.576;9.978;2022-07-18T12:50:56;4.83;;;4.50;;
7160;SDS011;3622;53.576;9.978;2022-07-18T12:53:22;5.13;;;4.57;;
7160;SDS011;3622;53.576;9.978;2022-07-18T12:55:48;11.93;;;5.73;;
7160;SDS011;3622;53.576;9.978;2022-07-18T12:58:14;4.67;;;4.27;;
7160;SDS011;3622;53.576;9.978;2022-07-18T13:00:40;6.00;;;5.00;;
7160;SDS011;3622;53.576;9.978;2022-07-18T13:03:08;5.57;;;4.90;;
7160;SDS011;3622;53.576;9.978;2022-07-18T13:05:34;6.37;;;5.77;;
7160;SDS011;3622;53.576;9.978;2022-07-18T13:08:00;7.27;;;6.13;;
7160;SDS011;3622;53.576;9.978;2022-07-18T13:10:26;4.57;;;3.90;;
7160;SDS011;3622;53.576;9.978;2022-07-18T13:12:53;5.40;;;3.77;;
7160;SDS011;3622;53.576;9.978;2022-07-18T13:15:19;5.90;;;4.80;;
7160;SDS011;3622;53.576;9.978;2022-07-18T13:17:46;4.07;;;3.43;;
7160;SDS011;3622;53.576;9.978;2022-07-18T13:20:14;3.20;;;3.00;;
7160;SDS011;3622;53.576;9.978;2022-07-18T13:22:40;3.27;;;3.00;;
7160;SDS011;3622;53.576;9.978;2022-07-18T13:25:06;3.30;;;3.00;;
7160;SDS011;3622;53.576;9.978;2022-07-18T13:27:33;3.40;;;3.20;;
7160;SDS011;3622;53.576;9.978;2022-07-18T13:29:59;3.70;;;3.40;;
7160;SDS011;3622;53.576;9.978;2022-07-18T13:32:26;3.53;;;3.30;;
7160;SDS011;3622;53.576;9.978;2022-07-18T13:34:52;3.43;;;3.13;;
7160;SDS011;3622;53.576;9.978;2022-07-18T13:37:19;3.70;;;3.50;;
7160;SDS011;3622;53.576;9.978;2022-07-18T13:39:44;3.30;;;3.03;;
7160;SDS011;3622;53.576;9.978;2022-07-18T13:42:11;4.80;;;3.10;;
7160;SDS011;3622;53.576;9.978;2022-07-18T13:44:36;4.07;;;3.77;;
7160;SDS011;3622;53.576;9.978;2022-07-18T13:47:02;3.83;;;3.43;;
7160;SDS011;3622;53.576;9.978;2022-07-18T13:49:28;6.13;;;3.53;;
7160;SDS011;3622;53.576;9.978;2022-07-18T13:51:54;3.33;;;3.03;;
7160;SDS011;3622;53.576;9.978;2022-07-18T13:54:20;3.57;;;3.27;;
7160;SDS011;3622;53.576;9.978;2022-07-18T13:56:47;5.33;;;3.73;;
7160;SDS011;3622;53.576;9.978;2022-07-18T13:59:13;3.50;;;3.20;;
7160;SDS011;3622;53.576;9.978;2022-07-18T14:01:40;3.73;;;3.00;;
7160;SDS011;3622;53.576;9.978;2022-07-18T14:04:06;3.50;;;3.20;;
7160;SDS011;3622;53.576;9.978;2022-07-18T14:06:32;4.40;;;3.97;;
7160;SDS011;3622;53.576;9.978;2022-07-18T14:09:00;3.30;;;3.10;;
7160;SDS011;3622;53.576;9.978;2022-07-18T14:11:26;7.83;;;3.97;;
7160;SDS011;3622;53.576;9.978;2022-07-18T14:13:52;4.03;;;3.63;;
7160;SDS011;3622;53.576;9.978;2022-07-18T14:16:18;8.20;;;5.70;;
7160;SDS011;3622;53.576;9.978;2022-07-18T14:18:44;4.90;;;3.43;;
7160;SDS011;3622;53.576;9.978;2022-07-18T14:21:10;4.03;;;3.47;;
7160;SDS011;3622;53.576;9.978;2022-07-18T14:23:36;3.50;;;3.30;;
7160;SDS011;3622;53.576;9.978;2022-07-18T14:26:02;3.60;;;3.30;;
7160;SDS011;3622;53.576;9.978;2022-07-18T14:28:28;4.70;;;3.73;;
7160;SDS011;3622;53.576;9.978;2022-07-18T14:30:54;3.50;;;3.20;;
7160;SDS011;3622;53.576;9.978;2022-07-18T14:33:20;4.50;;;3.70;;
7160;SDS011;3622;53.576;9.978;2022-07-18T14:35:46;6.47;;;4.20;;
7160;SDS011;3622;53.576;9.978;2022-07-18T14:38:12;4.20;;;3.90;;
7160;SDS011;3622;53.576;9.978;2022-07-18T14:40:38;4.60;;;3.60;;
7160;SDS011;3622;53.576;9.978;2022-07-18T14:43:04;4.00;;;3.60;;
7160;SDS011;3622;53.576;9.978;2022-07-18T14:45:30;4.63;;;3.47;;
7160;SDS011;3622;53.576;9.978;2022-07-18T14:47:56;5.30;;;4.27;;
7160;SDS011;3622;53.576;9.978;2022-07-18T14:50:22;3.70;;;3.40;;
7160;SDS011;3622;53.576;9.978;2022-07-18T14:52:48;3.73;;;3.33;;
7160;SDS011;3622;53.576;9.978;2022-07-18T14:55:14;3.77;;;3.07;;
7160;SDS011;3622;53.576;9.978;2022-07-18T14:57:40;3.70;;;3.50;;
7160;SDS011;3622;53.576;9.978;2022-07-18T15:00:07;4.20;;;3.80;;
7160;SDS011;3622;53.576;9.978;2022-07-18T15:02:34;6.10;;;5.50;;
7160;SDS011;3622;53.576;9.978;2022-07-18T15:05:01;3.80;;;3.47;;
7160;SDS011;3622;53.576;9.978;2022-07-18T15:07:27;7.73;;;3.97;;
7160;SDS011;3622;53.576;9.978;2022-07-18T15:09:53;4.10;;;3.43;;
7160;SDS011;3622;53.576;9.978;2022-07-18T15:12:19;3.93;;;3.63;;
7160;SDS011;3622;53.576;9.978;2022-07-18T15:14:45;3.73;;;3.43;;
7160;SDS011;3622;53.576;9.978;2022-07-18T15:17:11;3.97;;;3.67;;
7160;SDS011;3622;53.576;9.978;2022-07-18T15:19:37;4.00;;;3.53;;
7160;SDS011;3622;53.576;9.978;2022-07-18T15:22:03;4.33;;;3.47;;
7160;SDS011;3622;53.576;9.978;2022-07-18T15:24:30;11.57;;;4.03;;
7160;SDS011;3622;53.576;9.978;2022-07-18T15:26:56;5.13;;;3.90;;
7160;SDS011;3622;53.576;9.978;2022-07-18T15:29:22;4.90;;;4.23;;
7160;SDS011;3622;53.576;9.978;2022-07-18T15:31:48;3.87;;;3.53;;
7160;SDS011;3622;53.576;9.978;2022-07-18T15:34:14;8.30;;;6.90;;
7160;SDS011;3622;53.576;9.978;2022-07-18T15:36:40;7.60;;;6.23;;
7160;SDS011;3622;53.576;9.978;2022-07-18T15:39:06;9.27;;;4.00;;